sensor_id;sensor_type;location;lat;lon;timestamp;pressure;altitude;pressure_sealevel;temperature;humidity
5296;BME280;2670;42.720;23.336;2023-08-08T00:00:21;-18091.72;;;-145.34;100.00
5296;BME280;2670;42.720;23.336;2023-08-08T00:02:47;-18091.72;;;-145.34;100.00
5296;BME280;2670;42.720;23.336;2023-08-08T00:05:14;-18091.72;;;-145.34;100.00
5296;BME280;2670;42.720;23.336;2023-08-08T00:07:41;-18091.72;;;-145.34;99.98
5296;BME280;2670;42.720;23.336;2023-08-08T00:10:09;-18091.72;;;-145.34;100.00
5296;BME280;2670;42.720;23.336;2023-08-08T00:12:37;-18091.72;;;-145.34;99.89
5296;BME280;2670;42.720;23.336;2023-08-08T00:15:04;-18091.72;;;-145.34;98.09
5296;BME280;2670;42.720;23.336;2023-08-08T00:17:32;-18091.72;;;-145.34;97.97
5296;BME280;2670;42.720;23.336;2023-08-08T00:19:59;-18091.72;;;-145.34;98.26
5296;BME280;2670;42.720;23.336;2023-08-08T00:22:25;-18091.72;;;-145.34;97.85
5296;BME280;2670;42.720;23.336;2023-08-08T00:24:52;-18091.72;;;-145.34;98.05
5296;BME280;2670;42.720;23.336;2023-08-08T00:27:20;-18091.72;;;-145.34;97.27
5296;BME280;2670;42.720;23.336;2023-08-08T00:29:47;-18091.72;;;-145.34;98.93
5296;BME280;2670;42.720;23.336;2023-08-08T00:32:13;-18091.72;;;-145.34;97.91
5296;BME280;2670;42.720;23.336;2023-08-08T00:34:40;-18091.72;;;-145.34;99.19
5296;BME280;2670;42.720;23.336;2023-08-08T00:37:07;-18091.72;;;-145.34;97.65
5296;BME280;2670;42.720;23.336;2023-08-08T00:39:33;-18091.72;;;-145.34;96.77
5296;BME280;2670;42.720;23.336;2023-08-08T00:42:00;-18091.72;;;-145.34;98.35
5296;BME280;2670;42.720;23.336;2023-08-08T00:44:28;-18091.72;;;-145.34;96.53
5296;BME280;2670;42.720;23.336;2023-08-08T00:46:55;-18091.72;;;-145.34;97.89
5296;BME280;2670;42.720;23.336;2023-08-08T00:49:22;-18091.72;;;-145.34;98.78
5296;BME280;2670;42.720;23.336;2023-08-08T00:51:49;-18091.72;;;-145.34;98.42
5296;BME280;2670;42.720;23.336;2023-08-08T00:54:16;-18091.72;;;-145.34;98.81
5296;BME280;2670;42.720;23.336;2023-08-08T00:56:43;-18091.72;;;-145.34;98.53
5296;BME280;2670;42.720;23.336;2023-08-08T00:59:10;-18091.72;;;-145.34;96.05
5296;BME280;2670;42.720;23.336;2023-08-08T01:01:39;-18091.72;;;-145.34;97.32
5296;BME280;2670;42.720;23.336;2023-08-08T01:04:06;-18091.72;;;-145.34;97.09
5296;BME280;2670;42.720;23.336;2023-08-08T01:06:37;-18091.72;;;-145.34;96.27
5296;BME280;2670;42.720;23.336;2023-08-08T01:09:10;-18091.72;;;-145.34;97.13
5296;BME280;2670;42.720;23.336;2023-08-08T01:11:40;-18091.72;;;-145.34;97.33
5296;BME280;2670;42.720;23.336;2023-08-08T01:14:09;-18091.72;;;-145.34;97.98
5296;BME280;2670;42.720;23.336;2023-08-08T01:16:37;-18091.72;;;-145.34;96.48
5296;BME280;2670;42.720;23.336;2023-08-08T01:19:06;-18091.72;;;-145.34;96.53
5296;BME280;2670;42.720;23.336;2023-08-08T01:21:36;-18091.72;;;-145.34;97.42
5296;BME280;2670;42.720;23.336;2023-08-08T01:24:18;-18091.72;;;-145.34;96.89
5296;BME280;2670;42.720;23.336;2023-08-08T01:26:47;-18091.72;;;-145.34;97.21
5296;BME280;2670;42.720;23.336;2023-08-08T01:29:14;-18091.72;;;-145.34;97.17
5296;BME280;2670;42.720;23.336;2023-08-08T01:31:41;-18091.72;;;-145.34;97.48
5296;BME280;2670;42.720;23.336;2023-08-08T01:34:08;-18091.72;;;-145.34;97.89
5296;BME280;2670;42.720;23.336;2023-08-08T01:36:39;-18091.72;;;-145.34;97.16
5296;BME280;2670;42.720;23.336;2023-08-08T01:39:13;-18091.72;;;-145.34;98.26
5296;BME280;2670;42.720;23.336;2023-08-08T01:41:47;-18091.72;;;-145.34;99.12
5296;BME280;2670;42.720;23.336;2023-08-08T01:44:15;-18091.72;;;-145.34;98.94
5296;BME280;2670;42.720;23.336;2023-08-08T01:46:43;-18091.72;;;-145.34;98.92
5296;BME280;2670;42.720;23.336;2023-08-08T01:49:09;-18091.72;;;-145.34;99.02
5296;BME280;2670;42.720;23.336;2023-08-08T01:51:36;-18091.72;;;-145.34;99.49
5296;BME280;2670;42.720;23.336;2023-08-08T01:54:03;-18091.72;;;-145.34;99.62
5296;BME280;2670;42.720;23.336;2023-08-08T01:56:30;-18091.72;;;-145.34;98.63
5296;BME280;2670;42.720;23.336;2023-08-08T01:58:58;-18091.72;;;-145.34;99.60
5296;BME280;2670;42.720;23.336;2023-08-08T02:01:24;-18091.72;;;-145.34;100.00
5296;BME280;2670;42.720;23.336;2023-08-08T02:03:51;-18091.72;;;-145.34;99.59
5296;BME280;2670;42.720;23.336;2023-08-08T02:06:18;-18091.72;;;-145.34;100.00
5296;BME280;2670;42.720;23.336;2023-08-08T02:08:46;-18091.72;;;-145.34;99.53
5296;BME280;2670;42.720;23.336;2023-08-08T02:11:12;-18091.72;;;-145.34;100.00
5296;BME280;2670;42.720;23.336;2023-08-08T02:13:39;-18091.72;;;-145.34;99.38
5296;BME280;2670;42.720;23.336;2023-08-08T02:16:07;-18091.72;;;-145.34;99.20
5296;BME280;2670;42.720;23.336;2023-08-08T02:18:34;-18091.72;;;-145.34;100.00
5296;BME280;2670;42.720;23.336;2023-08-08T02:21:01;-18091.72;;;-145.34;100.00
5296;BME280;2670;42.720;23.336;2023-08-08T02:23:28;-18091.72;;;-145.34;100.00
5296;BME280;2670;42.720;23.336;2023-08-08T02:25:54;-18091.72;;;-145.34;100.00
5296;BME280;2670;42.720;23.336;2023-08-08T02:28:21;-18091.72;;;-145.34;100.00
5296;BME280;2670;42.720;23.336;2023-08-08T02:30:48;-18091.72;;;-145.34;100.00
5296;BME280;2670;42.720;23.336;2023-08-08T02:33:16;-18091.72;;;-145.34;100.00
5296;BME280;2670;42.720;23.336;2023-08-08T02:35:43;-18091.72;;;-145.34;100.00
5296;BME280;2670;42.720;23.336;2023-08-08T02:38:09;-18091.72;;;-145.34;99.44
5296;BME280;2670;42.720;23.336;2023-08-08T02:40:36;-18091.72;;;-145.34;99.89
5296;BME280;2670;42.720;23.336;2023-08-08T02:43:04;-18091.72;;;-145.34;99.89
5296;BME280;2670;42.720;23.336;2023-08-08T02:45:30;-18091.72;;;-145.34;100.00
5296;BME280;2670;42.720;23.336;2023-08-08T02:47:57;-18091.72;;;-145.34;100.00
5296;BME280;2670;42.720;23.336;2023-08-08T02:50:25;-18091.72;;;-145.34;99.46
5296;BME280;2670;42.720;23.336;2023-08-08T02:52:52;-18091.72;;;-145.34;99.94
5296;BME280;2670;42.720;23.336;2023-08-08T02:55:19;-18091.72;;;-145.34;100.00
5296;BME280;2670;42.720;23.336;2023-08-08T02:57:45;-18091.72;;;-145.34;99.76
5296;BME280;2670;42.720;23.336;2023-08-08T03:00:13;-18091.72;;;-145.34;98.70
5296;BME280;2670;42.720;23.336;2023-08-08T03:02:39;-18091.72;;;-145.34;100.00
5296;BME280;2670;42.720;23.336;2023-08-08T03:05:07;-18091.72;;;-145.34;100.00
5296;BME280;2670;42.720;23.336;2023-08-08T03:07:35;-18091.72;;;-145.34;100.00
5296;BME280;2670;42.720;23.336;2023-08-08T03:10:02;-18091.72;;;-145.34;100.00
5296;BME280;2670;42.720;23.336;2023-08-08T03:12:30;-18091.72;;;-145.34;100.00
5296;BME280;2670;42.720;23.336;2023-08-08T03:14:56;-18091.72;;;-145.34;100.00
5296;BME280;2670;42.720;23.336;2023-08-08T03:17:23;-18091.72;;;-145.34;99.58
5296;BME280;2670;42.720;23.336;2023-08-08T03:19:50;-18091.72;;;-145.34;99.13
5296;BME280;2670;42.720;23.336;2023-08-08T03:22:16;-18091.72;;;-145.34;100.00
5296;BME280;2670;42.720;23.336;2023-08-08T03:24:44;-18091.72;;;-145.34;98.77
5296;BME280;2670;42.720;23.336;2023-08-08T03:27:11;-18091.72;;;-145.34;99.49
5296;BME280;2670;42.720;23.336;2023-08-08T03:29:38;-18091.72;;;-145.34;100.00
5296;BME280;2670;42.720;23.336;2023-08-08T03:32:05;-18091.72;;;-145.34;100.00
5296;BME280;2670;42.720;23.336;2023-08-08T03:34:32;-18091.72;;;-145.34;100.00
5296;BME280;2670;42.720;23.336;2023-08-08T03:36:59;-18091.72;;;-145.34;100.00
5296;BME280;2670;42.720;23.336;2023-08-08T03:39:26;-18091.72;;;-145.34;99.84
5296;BME280;2670;42.720;23.336;2023-08-08T03:41:54;-18091.72;;;-145.34;99.40
5296;BME280;2670;42.720;23.336;2023-08-08T03:44:21;-18091.72;;;-145.34;99.76
5296;BME280;2670;42.720;23.336;2023-08-08T03:46:48;-18091.72;;;-145.34;99.51
5296;BME280;2670;42.720;23.336;2023-08-08T03:49:15;-18091.72;;;-145.34;99.65
5296;BME280;2670;42.720;23.336;2023-08-08T03:51:41;-18091.72;;;-145.34;99.55
5296;BME280;2670;42.720;23.336;2023-08-08T03:54:08;-18091.72;;;-145.34;99.74
5296;BME280;2670;42.720;23.336;2023-08-08T03:56:35;-18091.72;;;-145.34;99.37
5296;BME280;2670;42.720;23.336;2023-08-08T03:59:03;-18091.72;;;-145.34;99.41
5296;BME280;2670;42.720;23.336;2023-08-08T04:01:30;-18091.72;;;-145.34;98.57
5296;BME280;2670;42.720;23.336;2023-08-08T04:03:57;-18091.72;;;-145.34;98.42
5296;BME280;2670;42.720;23.336;2023-08-08T04:06:24;-18091.72;;;-145.34;98.55
5296;BME280;2670;42.720;23.336;2023-08-08T04:08:51;-18091.72;;;-145.34;97.78
5296;BME280;2670;42.720;23.336;2023-08-08T04:11:17;-18091.72;;;-145.34;98.50
5296;BME280;2670;42.720;23.336;2023-08-08T04:13:44;-18091.72;;;-145.34;97.95
5296;BME280;2670;42.720;23.336;2023-08-08T04:16:12;-18091.72;;;-145.34;98.36
5296;BME280;2670;42.720;23.336;2023-08-08T04:18:39;-18091.72;;;-145.34;98.03
5296;BME280;2670;42.720;23.336;2023-08-08T04:21:06;-18091.72;;;-145.34;98.48
5296;BME280;2670;42.720;23.336;2023-08-08T04:23:32;-18091.72;;;-145.34;98.32
5296;BME280;2670;42.720;23.336;2023-08-08T04:25:59;-18091.72;;;-145.34;97.57
5296;BME280;2670;42.720;23.336;2023-08-08T04:28:26;-18091.72;;;-145.34;98.65
5296;BME280;2670;42.720;23.336;2023-08-08T04:30:52;-18091.72;;;-145.34;97.27
5296;BME280;2670;42.720;23.336;2023-08-08T04:33:20;-18091.72;;;-145.34;97.61
5296;BME280;2670;42.720;23.336;2023-08-08T04:35:47;-18091.72;;;-145.34;98.79
5296;BME280;2670;42.720;23.336;2023-08-08T04:38:14;-18091.72;;;-145.34;97.96
5296;BME280;2670;42.720;23.336;2023-08-08T04:40:41;-18091.72;;;-145.34;98.72
5296;BME280;2670;42.720;23.336;2023-08-08T04:43:08;-18091.72;;;-145.34;98.11
5296;BME280;2670;42.720;23.336;2023-08-08T04:45:35;-18091.72;;;-145.34;97.96
5296;BME280;2670;42.720;23.336;2023-08-08T04:48:01;-18091.72;;;-145.34;98.66
5296;BME280;2670;42.720;23.336;2023-08-08T04:50:29;-18091.72;;;-145.34;97.44
5296;BME280;2670;42.720;23.336;2023-08-08T04:52:56;-18091.72;;;-145.34;98.18
5296;BME280;2670;42.720;23.336;2023-08-08T04:55:23;-18091.72;;;-145.34;98.13
5296;BME280;2670;42.720;23.336;2023-08-08T04:57:49;-18091.72;;;-145.34;98.09
5296;BME280;2670;42.720;23.336;2023-08-08T05:00:17;-18091.72;;;-145.34;97.61
5296;BME280;2670;42.720;23.336;2023-08-08T05:02:43;-18091.72;;;-145.34;98.04
5296;BME280;2670;42.720;23.336;2023-08-08T05:05:10;-18091.72;;;-145.34;97.86
5296;BME280;2670;42.720;23.336;2023-08-08T05:07:38;-18091.72;;;-145.34;98.19
5296;BME280;2670;42.720;23.336;2023-08-08T05:10:06;-18091.72;;;-145.34;97.48
5296;BME280;2670;42.720;23.336;2023-08-08T05:12:33;-18091.72;;;-145.34;97.18
5296;BME280;2670;42.720;23.336;2023-08-08T05:15:00;-18091.72;;;-145.34;97.80
5296;BME280;2670;42.720;23.336;2023-08-08T05:17:26;-18091.72;;;-145.34;97.98
5296;BME280;2670;42.720;23.336;2023-08-08T05:19:53;-18091.72;;;-145.34;97.55
5296;BME280;2670;42.720;23.336;2023-08-08T05:22:20;-18091.72;;;-145.34;97.94
5296;BME280;2670;42.720;23.336;2023-08-08T05:24:48;-18091.72;;;-145.34;97.08
5296;BME280;2670;42.720;23.336;2023-08-08T05:27:14;-18091.72;;;-145.34;96.42
5296;BME280;2670;42.720;23.336;2023-08-08T05:29:41;-18091.72;;;-145.34;96.48
5296;BME280;2670;42.720;23.336;2023-08-08T05:32:08;-18091.72;;;-145.34;96.53
5296;BME280;2670;42.720;23.336;2023-08-08T05:34:34;-18091.72;;;-145.34;96.10
5296;BME280;2670;42.720;23.336;2023-08-08T05:37:01;-18091.72;;;-145.34;95.98
5296;BME280;2670;42.720;23.336;2023-08-08T05:39:29;-18091.72;;;-145.34;96.07
5296;BME280;2670;42.720;23.336;2023-08-08T05:41:57;-18091.72;;;-145.34;95.56
5296;BME280;2670;42.720;23.336;2023-08-08T05:44:24;-18091.72;;;-145.34;93.54
5296;BME280;2670;42.720;23.336;2023-08-08T05:46:51;-18091.72;;;-145.34;93.63
5296;BME280;2670;42.720;23.336;2023-08-08T05:49:18;-18091.72;;;-145.34;93.28
5296;BME280;2670;42.720;23.336;2023-08-08T05:51:45;-18091.72;;;-145.34;92.38
5296;BME280;2670;42.720;23.336;2023-08-08T05:54:11;-18091.72;;;-145.34;91.76
5296;BME280;2670;42.720;23.336;2023-08-08T05:56:38;-18091.72;;;-145.34;93.38
5296;BME280;2670;42.720;23.336;2023-08-08T05:59:06;-18091.72;;;-145.34;93.60
5296;BME280;2670;42.720;23.336;2023-08-08T06:01:33;-18091.72;;;-145.34;93.93
5296;BME280;2670;42.720;23.336;2023-08-08T06:04:00;-18091.72;;;-145.34;93.69
5296;BME280;2670;42.720;23.336;2023-08-08T06:06:28;-18091.72;;;-145.34;91.68
5296;BME280;2670;42.720;23.336;2023-08-08T06:08:55;-18091.72;;;-145.34;91.53
5296;BME280;2670;42.720;23.336;2023-08-08T06:11:22;-18091.72;;;-145.34;90.25
5296;BME280;2670;42.720;23.336;2023-08-08T06:13:48;-18091.72;;;-145.34;89.85
5296;BME280;2670;42.720;23.336;2023-08-08T06:16:16;-18091.72;;;-145.34;91.46
5296;BME280;2670;42.720;23.336;2023-08-08T06:18:44;-18091.72;;;-145.34;90.65
5296;BME280;2670;42.720;23.336;2023-08-08T06:21:10;-18091.72;;;-145.34;91.58
5296;BME280;2670;42.720;23.336;2023-08-08T06:23:37;-18091.72;;;-145.34;90.33
5296;BME280;2670;42.720;23.336;2023-08-08T06:26:04;-18091.72;;;-145.34;90.04
5296;BME280;2670;42.720;23.336;2023-08-08T06:28:31;-18091.72;;;-145.34;89.62
5296;BME280;2670;42.720;23.336;2023-08-08T06:30:58;-18091.72;;;-145.34;90.21
5296;BME280;2670;42.720;23.336;2023-08-08T06:33:26;-18091.72;;;-145.34;88.65
5296;BME280;2670;42.720;23.336;2023-08-08T06:35:53;-18091.72;;;-145.34;88.60
5296;BME280;2670;42.720;23.336;2023-08-08T06:38:20;-18091.72;;;-145.34;88.02
5296;BME280;2670;42.720;23.336;2023-08-08T06:40:47;-18091.72;;;-145.34;87.73
5296;BME280;2670;42.720;23.336;2023-08-08T06:43:14;-18091.72;;;-145.34;89.15
5296;BME280;2670;42.720;23.336;2023-08-08T06:45:40;-18091.72;;;-145.34;88.19
5296;BME280;2670;42.720;23.336;2023-08-08T06:48:07;-18091.72;;;-145.34;88.76
5296;BME280;2670;42.720;23.336;2023-08-08T06:50:35;-18091.72;;;-145.34;87.35
5296;BME280;2670;42.720;23.336;2023-08-08T06:53:02;-18091.72;;;-145.34;85.23
5296;BME280;2670;42.720;23.336;2023-08-08T06:55:29;-18091.72;;;-145.34;85.13
5296;BME280;2670;42.720;23.336;2023-08-08T06:57:56;-18091.72;;;-145.34;84.16
5296;BME280;2670;42.720;23.336;2023-08-08T07:00:22;-18091.72;;;-145.34;83.02
5296;BME280;2670;42.720;23.336;2023-08-08T07:02:49;-18091.72;;;-145.34;80.90
5296;BME280;2670;42.720;23.336;2023-08-08T07:05:16;-18091.72;;;-145.34;81.29
5296;BME280;2670;42.720;23.336;2023-08-08T07:07:44;-18091.72;;;-145.34;80.61
5296;BME280;2670;42.720;23.336;2023-08-08T07:10:11;-18091.72;;;-145.34;78.48
5296;BME280;2670;42.720;23.336;2023-08-08T07:12:38;-18091.72;;;-145.34;78.12
5296;BME280;2670;42.720;23.336;2023-08-08T07:15:07;-18091.72;;;-145.34;78.91
5296;BME280;2670;42.720;23.336;2023-08-08T07:17:36;-18091.72;;;-145.34;78.70
5296;BME280;2670;42.720;23.336;2023-08-08T07:20:03;-18091.72;;;-145.34;78.84
5296;BME280;2670;42.720;23.336;2023-08-08T07:22:31;-18091.72;;;-145.34;78.86
5296;BME280;2670;42.720;23.336;2023-08-08T07:24:59;-18091.72;;;-145.34;78.93
5296;BME280;2670;42.720;23.336;2023-08-08T07:27:26;-18091.72;;;-145.34;77.79
5296;BME280;2670;42.720;23.336;2023-08-08T07:29:53;-18091.72;;;-145.34;79.97
5296;BME280;2670;42.720;23.336;2023-08-08T07:32:20;-18091.72;;;-145.34;78.50
5296;BME280;2670;42.720;23.336;2023-08-08T07:34:47;-18091.72;;;-145.34;77.69
5296;BME280;2670;42.720;23.336;2023-08-08T07:37:14;-18091.72;;;-145.34;79.02
5296;BME280;2670;42.720;23.336;2023-08-08T07:39:41;-18091.72;;;-145.34;77.40
5296;BME280;2670;42.720;23.336;2023-08-08T07:42:09;-18091.72;;;-145.34;77.89
5296;BME280;2670;42.720;23.336;2023-08-08T07:44:36;-18091.72;;;-145.34;77.38
5296;BME280;2670;42.720;23.336;2023-08-08T07:47:04;-18091.72;;;-145.34;77.46
5296;BME280;2670;42.720;23.336;2023-08-08T07:49:31;-18091.72;;;-145.34;77.40
5296;BME280;2670;42.720;23.336;2023-08-08T07:51:58;-18091.72;;;-145.34;76.57
5296;BME280;2670;42.720;23.336;2023-08-08T07:54:24;-18091.72;;;-145.34;77.33
5296;BME280;2670;42.720;23.336;2023-08-08T07:56:51;-18091.72;;;-145.34;78.95
5296;BME280;2670;42.720;23.336;2023-08-08T07:59:19;-18091.72;;;-145.34;75.98
5296;BME280;2670;42.720;23.336;2023-08-08T08:01:46;-18091.72;;;-145.34;74.88
5296;BME280;2670;42.720;23.336;2023-08-08T08:04:13;-18091.72;;;-145.34;74.33
5296;BME280;2670;42.720;23.336;2023-08-08T08:06:39;-18091.72;;;-145.34;74.96
5296;BME280;2670;42.720;23.336;2023-08-08T08:09:06;-18091.72;;;-145.34;75.00
5296;BME280;2670;42.720;23.336;2023-08-08T08:11:33;-18091.72;;;-145.34;75.01
5296;BME280;2670;42.720;23.336;2023-08-08T08:14:00;-18091.72;;;-145.34;70.52
5296;BME280;2670;42.720;23.336;2023-08-08T08:16:28;-18091.72;;;-145.34;70.43
5296;BME280;2670;42.720;23.336;2023-08-08T08:18:55;-18091.72;;;-145.34;67.25
5296;BME280;2670;42.720;23.336;2023-08-08T08:21:22;-18091.72;;;-145.34;67.21
5296;BME280;2670;42.720;23.336;2023-08-08T08:23:49;-18091.72;;;-145.34;68.12
5296;BME280;2670;42.720;23.336;2023-08-08T08:26:15;-18091.72;;;-145.34;67.86
5296;BME280;2670;42.720;23.336;2023-08-08T08:28:42;-18091.72;;;-145.34;65.17
5296;BME280;2670;42.720;23.336;2023-08-08T08:31:09;-18091.72;;;-145.34;65.59
5296;BME280;2670;42.720;23.336;2023-08-08T08:33:37;-18091.72;;;-145.34;65.54
5296;BME280;2670;42.720;23.336;2023-08-08T08:36:04;-18091.72;;;-145.34;66.22
5296;BME280;2670;42.720;23.336;2023-08-08T08:38:31;-18091.72;;;-145.34;64.65
5296;BME280;2670;42.720;23.336;2023-08-08T08:40:58;-18091.72;;;-145.34;64.06
5296;BME280;2670;42.720;23.336;2023-08-08T08:43:25;-18091.72;;;-145.34;64.85
5296;BME280;2670;42.720;23.336;2023-08-08T08:45:53;-18091.72;;;-145.34;62.76
5296;BME280;2670;42.720;23.336;2023-08-08T08:48:21;-18091.72;;;-145.34;62.97
5296;BME280;2670;42.720;23.336;2023-08-08T08:50:50;-18091.72;;;-145.34;62.83
5296;BME280;2670;42.720;23.336;2023-08-08T08:53:17;-18091.72;;;-145.34;62.05
5296;BME280;2670;42.720;23.336;2023-08-08T08:55:44;-18091.72;;;-145.34;62.36
5296;BME280;2670;42.720;23.336;2023-08-08T08:58:13;-18091.72;;;-145.34;62.25
5296;BME280;2670;42.720;23.336;2023-08-08T09:00:43;-18091.72;;;-145.34;62.21
5296;BME280;2670;42.720;23.336;2023-08-08T09:03:10;-18091.72;;;-145.34;62.56
5296;BME280;2670;42.720;23.336;2023-08-08T09:05:38;-18091.72;;;-145.34;62.44
5296;BME280;2670;42.720;23.336;2023-08-08T09:08:07;-18091.72;;;-145.34;61.21
5296;BME280;2670;42.720;23.336;2023-08-08T09:10:34;-18091.72;;;-145.34;60.92
5296;BME280;2670;42.720;23.336;2023-08-08T09:13:01;-18091.72;;;-145.34;60.04
5296;BME280;2670;42.720;23.336;2023-08-08T09:15:30;-18091.72;;;-145.34;60.01
5296;BME280;2670;42.720;23.336;2023-08-08T09:17:57;-18091.72;;;-145.34;59.47
5296;BME280;2670;42.720;23.336;2023-08-08T09:20:25;-18091.72;;;-145.34;58.77
5296;BME280;2670;42.720;23.336;2023-08-08T09:22:53;-18091.72;;;-145.34;59.95
5296;BME280;2670;42.720;23.336;2023-08-08T09:25:21;-18091.72;;;-145.34;59.86
5296;BME280;2670;42.720;23.336;2023-08-08T09:27:50;-18091.72;;;-145.34;59.63
5296;BME280;2670;42.720;23.336;2023-08-08T09:30:17;-18091.72;;;-145.34;58.78
5296;BME280;2670;42.720;23.336;2023-08-08T09:32:44;-18091.72;;;-145.34;57.92
5296;BME280;2670;42.720;23.336;2023-08-08T09:35:11;-18091.72;;;-145.34;57.55
5296;BME280;2670;42.720;23.336;2023-08-08T09:37:38;-18091.72;;;-145.34;58.84
5296;BME280;2670;42.720;23.336;2023-08-08T09:40:06;-18091.72;;;-145.34;59.28
5296;BME280;2670;42.720;23.336;2023-08-08T09:42:36;-18091.72;;;-145.34;58.37
5296;BME280;2670;42.720;23.336;2023-08-08T09:45:03;-18091.72;;;-145.34;57.92
5296;BME280;2670;42.720;23.336;2023-08-08T09:47:30;-18091.72;;;-145.34;58.96
5296;BME280;2670;42.720;23.336;2023-08-08T09:49:58;-18091.72;;;-145.34;57.21
5296;BME280;2670;42.720;23.336;2023-08-08T09:52:27;-18091.72;;;-145.34;58.23
5296;BME280;2670;42.720;23.336;2023-08-08T09:54:55;-18091.72;;;-145.34;58.09
5296;BME280;2670;42.720;23.336;2023-08-08T09:57:22;-18091.72;;;-145.34;57.42
5296;BME280;2670;42.720;23.336;2023-08-08T09:59:52;-18091.72;;;-145.34;56.24
5296;BME280;2670;42.720;23.336;2023-08-08T10:02:19;-18091.72;;;-145.34;57.67
5296;BME280;2670;42.720;23.336;2023-08-08T10:04:46;-18091.72;;;-145.34;58.26
5296;BME280;2670;42.720;23.336;2023-08-08T10:07:13;-18091.72;;;-145.34;57.49
5296;BME280;2670;42.720;23.336;2023-08-08T10:09:40;-18091.72;;;-145.34;56.90
5296;BME280;2670;42.720;23.336;2023-08-08T10:12:08;-18091.72;;;-145.34;56.55
5296;BME280;2670;42.720;23.336;2023-08-08T10:14:36;-18091.72;;;-145.34;57.52
5296;BME280;2670;42.720;23.336;2023-08-08T10:17:06;-18091.72;;;-145.34;57.15
5296;BME280;2670;42.720;23.336;2023-08-08T10:19:33;-18091.72;;;-145.34;56.48
5296;BME280;2670;42.720;23.336;2023-08-08T10:22:04;-18091.72;;;-145.34;55.71
5296;BME280;2670;42.720;23.336;2023-08-08T10:24:33;-18091.72;;;-145.34;56.96
5296;BME280;2670;42.720;23.336;2023-08-08T10:27:01;-18091.72;;;-145.34;55.83
5296;BME280;2670;42.720;23.336;2023-08-08T10:29:31;-18091.72;;;-145.34;56.81
5296;BME280;2670;42.720;23.336;2023-08-08T10:31:59;-18091.72;;;-145.34;57.14
5296;BME280;2670;42.720;23.336;2023-08-08T10:34:38;-18091.72;;;-145.34;56.80
5296;BME280;2670;42.720;23.336;2023-08-08T10:37:09;-18091.72;;;-145.34;57.18
5296;BME280;2670;42.720;23.336;2023-08-08T10:39:36;-18091.72;;;-145.34;56.20
5296;BME280;2670;42.720;23.336;2023-08-08T10:42:04;-18091.72;;;-145.34;55.40
5296;BME280;2670;42.720;23.336;2023-08-08T10:44:31;-18091.72;;;-145.34;55.22
5296;BME280;2670;42.720;23.336;2023-08-08T10:47:00;-18091.72;;;-145.34;56.15
5296;BME280;2670;42.720;23.336;2023-08-08T10:49:27;-18091.72;;;-145.34;55.30
5296;BME280;2670;42.720;23.336;2023-08-08T10:52:02;-18091.72;;;-145.34;56.47
5296;BME280;2670;42.720;23.336;2023-08-08T10:54:30;-18091.72;;;-145.34;55.73
5296;BME280;2670;42.720;23.336;2023-08-08T10:56:59;-18091.72;;;-145.34;54.97
5296;BME280;2670;42.720;23.336;2023-08-08T10:59:35;-18091.72;;;-145.34;55.94
5296;BME280;2670;42.720;23.336;2023-08-08T11:02:02;-18091.72;;;-145.34;55.26
5296;BME280;2670;42.720;23.336;2023-08-08T11:04:30;-18091.72;;;-145.34;54.22
5296;BME280;2670;42.720;23.336;2023-08-08T11:06:59;-18091.72;;;-145.34;55.81
5296;BME280;2670;42.720;23.336;2023-08-08T11:09:26;-18091.72;;;-145.34;55.21
5296;BME280;2670;42.720;23.336;2023-08-08T11:11:53;-18091.72;;;-145.34;54.52
5296;BME280;2670;42.720;23.336;2023-08-08T11:14:21;-18091.72;;;-145.34;54.99
5296;BME280;2670;42.720;23.336;2023-08-08T11:16:50;-18091.72;;;-145.34;54.17
5296;BME280;2670;42.720;23.336;2023-08-08T11:19:17;-18091.72;;;-145.34;54.56
5296;BME280;2670;42.720;23.336;2023-08-08T11:21:46;-18091.72;;;-145.34;54.71
5296;BME280;2670;42.720;23.336;2023-08-08T11:24:15;-18091.72;;;-145.34;54.68
5296;BME280;2670;42.720;23.336;2023-08-08T11:26:44;-18091.72;;;-145.34;54.74
5296;BME280;2670;42.720;23.336;2023-08-08T11:29:13;-18091.72;;;-145.34;54.87
5296;BME280;2670;42.720;23.336;2023-08-08T11:31:40;-18091.72;;;-145.34;54.87
5296;BME280;2670;42.720;23.336;2023-08-08T11:34:07;-18091.72;;;-145.34;53.86
5296;BME280;2670;42.720;23.336;2023-08-08T11:36:35;-18091.72;;;-145.34;53.23
5296;BME280;2670;42.720;23.336;2023-08-08T11:39:03;-18091.72;;;-145.34;53.91
5296;BME280;2670;42.720;23.336;2023-08-08T11:41:35;-18091.72;;;-145.34;54.33
5296;BME280;2670;42.720;23.336;2023-08-08T11:44:03;-18091.72;;;-145.34;53.34
5296;BME280;2670;42.720;23.336;2023-08-08T11:46:30;-18091.72;;;-145.34;53.36
5296;BME280;2670;42.720;23.336;2023-08-08T11:49:02;-18091.72;;;-145.34;53.59
5296;BME280;2670;42.720;23.336;2023-08-08T11:51:29;-18091.72;;;-145.34;53.50
5296;BME280;2670;42.720;23.336;2023-08-08T11:53:56;-18091.72;;;-145.34;52.36
5296;BME280;2670;42.720;23.336;2023-08-08T11:56:29;-18091.72;;;-145.34;53.91
5296;BME280;2670;42.720;23.336;2023-08-08T11:58:57;-18091.72;;;-145.34;53.42
5296;BME280;2670;42.720;23.336;2023-08-08T12:01:26;-18091.72;;;-145.34;54.38
5296;BME280;2670;42.720;23.336;2023-08-08T12:03:54;-18091.72;;;-145.34;52.79
5296;BME280;2670;42.720;23.336;2023-08-08T12:06:22;-18091.72;;;-145.34;53.57
5296;BME280;2670;42.720;23.336;2023-08-08T12:08:54;-18091.72;;;-145.34;51.89
5296;BME280;2670;42.720;23.336;2023-08-08T12:11:21;-18091.72;;;-145.34;52.74
5296;BME280;2670;42.720;23.336;2023-08-08T12:13:51;-18091.72;;;-145.34;52.75
5296;BME280;2670;42.720;23.336;2023-08-08T12:16:27;-18091.72;;;-145.34;51.36
5296;BME280;2670;42.720;23.336;2023-08-08T12:18:55;-18091.72;;;-145.34;52.75
5296;BME280;2670;42.720;23.336;2023-08-08T12:21:22;-18091.72;;;-145.34;52.15
5296;BME280;2670;42.720;23.336;2023-08-08T12:23:49;-18091.72;;;-145.34;52.34
5296;BME280;2670;42.720;23.336;2023-08-08T12:26:17;-18091.72;;;-145.34;53.51
5296;BME280;2670;42.720;23.336;2023-08-08T12:28:44;-18091.72;;;-145.34;52.59
5296;BME280;2670;42.720;23.336;2023-08-08T12:31:11;-18091.72;;;-145.34;52.69
5296;BME280;2670;42.720;23.336;2023-08-08T12:33:39;-18091.72;;;-145.34;52.28
5296;BME280;2670;42.720;23.336;2023-08-08T12:36:06;-18091.72;;;-145.34;51.45
5296;BME280;2670;42.720;23.336;2023-08-08T12:38:33;-18091.72;;;-145.34;50.38